Time;durP1;ratioP1;P1;durP2;ratioP2;P2;SDS_P1;SDS_P2;PMS_P1;PMS_P2;Temp;Humidity;BMP_temperature;BMP_pressure;BME280_temperature;BME280_humidity;BME280_pressure;Samples;Min_cycle;Max_cycle;Signal;HPM_P1;HPM_P2
2022/04/08 00:04:00;;;;;;;2.20;0.73;;;;;;;9.53;100.00;97693.50;10463241;28;20220;-68
2022/04/08 00:09:04;;;;;;;4.00;1.40;;;;;;;9.52;100.00;97692.69;10463433;28;20236;-65
2022/04/08 00:14:07;;;;;;;1.80;0.77;;;;;;;9.45;100.00;97693.03;10462583;28;20689;-67
2022/04/08 00:19:12;;;;;;;2.90;0.90;;;;;;;9.52;100.00;97694.41;10462848;28;20216;-66
2022/04/08 00:24:17;;;;;;;3.40;1.13;;;;;;;9.48;100.00;97704.09;10462299;28;20219;-67
2022/04/08 00:29:20;;;;;;;2.97;0.83;;;;;;;9.56;100.00;97704.53;10462790;28;20216;-67
2022/04/08 00:34:25;;;;;;;3.73;0.93;;;;;;;9.60;100.00;97697.47;10461987;28;20667;-69
2022/04/08 00:39:29;;;;;;;3.33;1.03;;;;;;;9.59;100.00;97683.69;10461968;28;20374;-63
2022/04/08 00:44:32;;;;;;;4.27;1.17;;;;;;;9.52;100.00;97668.53;10461564;28;20216;-66
2022/04/08 00:49:38;;;;;;;3.30;1.10;;;;;;;9.47;100.00;97670.50;10461600;28;20224;-67
2022/04/08 00:54:41;;;;;;;3.13;1.37;;;;;;;9.48;100.00;97662.66;10461112;28;20304;-62
2022/04/08 00:59:45;;;;;;;3.53;1.10;;;;;;;9.48;100.00;97664.41;10458461;28;20255;-63
2022/04/08 01:04:49;;;;;;;3.43;0.87;;;;;;;9.51;100.00;97672.84;10144196;28;9999924;-66
2022/04/08 01:09:53;;;;;;;3.43;1.30;;;;;;;9.47;100.00;97673.09;10498631;28;20546;-66
2022/04/08 01:14:57;;;;;;;1.97;0.70;;;;;;;9.40;100.00;97679.47;10498918;28;20224;-67
2022/04/08 01:20:02;;;;;;;2.87;0.93;;;;;;;9.41;100.00;97691.50;10498309;28;20220;-68
2022/04/08 01:25:09;;;;;;;1.97;0.80;;;;;;;9.41;100.00;97694.94;10500836;28;20215;-67
2022/04/08 01:30:13;;;;;;;4.23;0.90;;;;;;;9.37;100.00;97706.34;10501626;28;20224;-70
2022/04/08 01:35:16;;;;;;;5.40;1.43;;;;;;;9.43;100.00;97711.22;10500855;28;20655;-66
2022/04/08 01:40:21;;;;;;;4.20;0.97;;;;;;;9.39;100.00;97714.06;10501071;28;20211;-65
2022/04/08 01:45:24;;;;;;;4.20;1.17;;;;;;;9.42;100.00;97717.34;10500909;28;20228;-66
2022/04/08 01:50:28;;;;;;;3.63;1.00;;;;;;;9.37;100.00;97731.41;10500807;28;20233;-66
2022/04/08 01:55:32;;;;;;;3.47;0.90;;;;;;;9.42;100.00;97742.38;10500688;28;20304;-67
2022/04/08 02:00:36;;;;;;;3.33;1.17;;;;;;;9.41;100.00;97758.78;10501511;28;20230;-69
2022/04/08 02:05:39;;;;;;;9.20;1.63;;;;;;;9.38;100.00;97746.84;10500524;28;20212;-69
2022/04/08 02:10:44;;;;;;;5.70;1.30;;;;;;;9.30;100.00;97751.56;10500218;28;20228;-69
2022/04/08 02:15:47;;;;;;;4.83;1.00;;;;;;;9.45;100.00;97765.53;10500218;28;20231;-66
2022/04/08 02:20:51;;;;;;;4.53;1.10;;;;;;;9.50;99.86;97759.22;10500279;28;20220;-67
2022/04/08 02:25:56;;;;;;;2.30;0.80;;;;;;;9.56;97.32;97751.16;10500140;28;20586;-69
2022/04/08 02:30:59;;;;;;;4.07;0.80;;;;;;;9.58;92.67;97769.22;10500007;28;20667;-69
2022/04/08 02:36:03;;;;;;;5.23;1.20;;;;;;;9.47;94.05;97764.53;10500166;28;20282;-70
2022/04/08 02:41:08;;;;;;;8.83;1.00;;;;;;;9.51;92.67;97773.00;10499754;28;20220;-69
2022/04/08 02:46:13;;;;;;;6.50;1.57;;;;;;;9.41;94.02;97775.19;10501245;28;20222;-67
2022/04/08 02:51:16;;;;;;;6.37;1.17;;;;;;;9.41;90.98;97784.69;10507337;28;20405;-67
2022/04/08 02:56:21;;;;;;;12.90;4.07;;;;;;;9.45;93.05;97796.59;10507557;28;20231;-66
2022/04/08 03:01:24;;;;;;;4.63;1.37;;;;;;;9.41;91.83;97792.44;10507716;28;20304;-69
2022/04/08 03:06:28;;;;;;;4.27;1.03;;;;;;;9.27;90.10;97806.88;10506966;28;20220;-64
2022/04/08 03:11:33;;;;;;;11.47;6.13;;;;;;;9.33;88.32;97803.19;10506870;28;20232;-68
2022/04/08 03:16:36;;;;;;;10.57;4.73;;;;;;;9.29;87.78;97804.22;10506918;28;20232;-66
2022/04/08 03:21:39;;;;;;;4.20;0.90;;;;;;;9.26;87.89;97810.38;10506399;28;20224;-68
2022/04/08 03:26:44;;;;;;;8.47;0.97;;;;;;;9.27;87.14;97812.06;10506559;28;20230;-69
2022/04/08 03:31:47;;;;;;;4.57;1.20;;;;;;;9.37;86.01;97814.22;10506042;28;20539;-67
2022/04/08 03:36:51;;;;;;;8.33;3.37;;;;;;;9.39;86.59;97817.59;10505671;28;20293;-67
2022/04/08 03:41:56;;;;;;;29.97;12.93;;;;;;;9.35;85.87;97822.06;10505632;28;20234;-69
2022/04/08 03:46:59;;;;;;;6.33;1.60;;;;;;;9.29;83.78;97812.84;10505531;28;20231;-68
2022/04/08 03:52:05;;;;;;;5.27;1.00;;;;;;;9.26;83.00;97818.16;10505662;28;20264;-68
2022/04/08 03:57:10;;;;;;;4.97;1.00;;;;;;;9.49;82.74;97831.78;10504933;28;20232;-70
2022/04/08 04:02:16;;;;;;;16.47;3.37;;;;;;;9.50;82.02;97817.91;10505015;28;20612;-69
2022/04/08 04:07:19;;;;;;;7.43;2.50;;;;;;;9.32;82.88;97832.53;10504620;28;20223;-66
2022/04/08 04:12:24;;;;;;;3.43;0.80;;;;;;;9.37;86.02;97861.63;10504495;28;20216;-65
2022/04/08 04:17:28;;;;;;;5.37;1.53;;;;;;;8.80;100.00;97880.56;10504818;28;20324;-67
2022/04/08 04:22:31;;;;;;;3.80;1.17;;;;;;;8.31;100.00;97870.63;10504260;28;20278;-66
2022/04/08 04:27:36;;;;;;;3.70;1.20;;;;;;;8.23;100.00;97861.47;10504065;28;20216;-67
2022/04/08 04:32:39;;;;;;;8.90;2.80;;;;;;;8.29;100.00;97874.16;10504174;28;20216;-66
2022/04/08 04:37:42;;;;;;;5.13;1.13;;;;;;;8.33;100.00;97881.72;10503404;28;20214;-69
2022/04/08 04:42:47;;;;;;;5.73;1.33;;;;;;;8.37;100.00;97883.25;10503002;28;20228;-68
2022/04/08 04:47:50;;;;;;;5.67;1.10;;;;;;;8.36;96.98;97879.00;10502923;28;20226;-66
2022/04/08 04:52:53;;;;;;;4.07;1.10;;;;;;;8.48;92.85;97886.25;10503058;28;20280;-67
2022/04/08 04:57:58;;;;;;;5.77;1.10;;;;;;;8.54;92.93;97890.34;10503032;28;20216;-66
2022/04/08 05:03:01;;;;;;;4.90;1.17;;;;;;;8.67;91.23;97891.50;10502384;28;20299;-65
2022/04/08 05:08:07;;;;;;;5.27;1.10;;;;;;;8.64;91.95;97905.41;10501468;28;20570;-68
2022/04/08 05:13:12;;;;;;;4.43;1.40;;;;;;;8.57;93.53;97914.31;10501679;28;20288;-67
2022/04/08 05:18:16;;;;;;;6.90;2.13;;;;;;;8.61;94.74;97933.13;10501641;28;20581;-69
2022/04/08 05:23:19;;;;;;;2.90;1.03;;;;;;;8.29;99.11;97939.59;10501498;28;20549;-71
2022/04/08 05:28:24;;;;;;;3.50;1.00;;;;;;;7.88;100.00;97948.94;10501190;28;20216;-66
2022/04/08 05:33:27;;;;;;;5.00;1.30;;;;;;;8.03;100.00;97945.75;10501191;28;20224;-68
2022/04/08 05:38:30;;;;;;;4.73;1.50;;;;;;;8.13;100.00;97957.41;10501133;28;20220;-68
2022/04/08 05:43:35;;;;;;;2.73;1.00;;;;;;;8.28;100.00;97947.41;10500834;28;20222;-68
2022/04/08 05:48:38;;;;;;;6.10;0.97;;;;;;;8.37;97.67;97957.41;10500528;28;20754;-70
2022/04/08 05:53:42;;;;;;;4.10;1.00;;;;;;;8.46;99.69;97955.28;10500420;28;20234;-68
2022/04/08 05:58:46;;;;;;;7.87;1.00;;;;;;;8.48;94.27;97944.88;10500166;28;20280;-68
2022/04/08 06:03:50;;;;;;;4.77;1.17;;;;;;;8.61;89.13;97964.16;10500428;28;20566;-67
2022/04/08 06:08:53;;;;;;;5.17;0.90;;;;;;;8.57;89.68;97957.41;10499968;28;20212;-70
2022/04/08 06:13:58;;;;;;;4.77;1.40;;;;;;;8.70;91.28;97974.09;10500217;28;20239;-66
2022/04/08 06:19:01;;;;;;;5.00;1.20;;;;;;;8.68;84.90;97966.41;10500036;28;20298;-68
2022/04/08 06:24:06;;;;;;;4.57;0.90;;;;;;;8.74;87.17;97984.28;10507401;28;20246;-68
2022/04/08 06:29:10;;;;;;;4.67;0.90;;;;;;;8.51;88.16;97974.00;10505181;28;20222;-68
2022/04/08 06:34:19;;;;;;;3.57;0.87;;;;;;;8.66;85.15;97981.16;10505543;28;20268;-68
2022/04/08 06:39:23;;;;;;;6.83;1.20;;;;;;;8.74;84.05;97975.66;10505397;28;20259;-65
2022/04/08 06:44:27;;;;;;;6.37;1.77;;;;;;;7.98;100.00;98038.06;10465539;28;20730;-67
2022/04/08 06:49:30;;;;;;;2.73;0.60;;;;;;;6.85;100.00;98074.75;10462393;28;20282;-67
2022/04/08 06:54:34;;;;;;;8.37;1.30;;;;;;;6.59;100.00;98072.97;10462995;28;20217;-67
2022/04/08 06:59:40;;;;;;;3.60;1.30;;;;;;;6.62;100.00;98070.31;10462055;28;20534;-69
2022/04/08 07:04:43;;;;;;;5.33;1.50;;;;;;;6.94;100.00;98080.44;10462443;28;20590;-67
2022/04/08 07:09:47;;;;;;;8.50;1.90;;;;;;;6.98;100.00;98081.19;10462320;28;20220;-66
2022/04/08 07:14:51;;;;;;;4.30;1.47;;;;;;;7.29;100.00;98084.44;10462154;28;20239;-69
2022/04/08 07:19:55;;;;;;;5.90;1.73;;;;;;;7.59;100.00;98087.72;10461696;28;20303;-69
2022/04/08 07:24:59;;;;;;;9.63;1.50;;;;;;;7.74;100.00;98085.44;10461539;28;20710;-67
2022/04/08 07:30:04;;;;;;;5.00;1.37;;;;;;;7.94;100.00;98095.03;10461076;28;20255;-70
2022/04/08 07:35:08;;;;;;;3.83;1.03;;;;;;;8.12;100.00;98109.88;10460691;28;20216;-72
2022/04/08 07:40:17;;;;;;;2.80;0.90;;;;;;;8.11;100.00;98110.81;10272001;28;10000787;-65
2022/04/08 07:45:27;;;;;;;5.53;1.30;;;;;;;8.39;100.00;98114.06;10502342;28;20417;-68
2022/04/08 07:50:32;;;;;;;2.90;0.83;;;;;;;8.63;100.00;98126.06;10462046;28;20252;-68
2022/04/08 07:55:35;;;;;;;20.97;11.23;;;;;;;8.83;97.11;98151.16;10460447;28;20233;-67
2022/04/08 08:00:40;;;;;;;4.30;1.20;;;;;;;8.61;97.13;98164.06;10460106;28;20221;-66
2022/04/08 08:05:43;;;;;;;2.53;0.83;;;;;;;8.74;95.28;98165.28;10459879;28;20213;-69
2022/04/08 08:10:47;;;;;;;1.97;0.80;;;;;;;8.82;95.16;98170.16;10459427;28;20921;-69
2022/04/08 08:15:51;;;;;;;3.43;1.00;;;;;;;8.84;93.68;98192.50;10459584;28;20236;-68
2022/04/08 08:20:55;;;;;;;2.77;0.87;;;;;;;8.95;89.83;98202.44;10459225;28;20304;-66
2022/04/08 08:25:58;;;;;;;3.13;1.00;;;;;;;8.99;87.46;98214.34;10459084;28;20222;-68
2022/04/08 08:31:12;;;;;;;4.93;0.80;;;;;;;9.03;86.21;98224.53;10458689;28;20285;-71
2022/04/08 08:36:16;;;;;;;3.93;0.90;;;;;;;9.30;84.07;98231.22;10459549;28;20246;-66
2022/04/08 08:41:20;;;;;;;3.57;1.10;;;;;;;9.32;81.95;98244.09;10468514;28;20226;-65
2022/04/08 08:46:25;;;;;;;2.80;0.70;;;;;;;9.47;79.38;98246.09;10498492;28;20852;-67
2022/04/08 08:51:37;;;;;;;4.07;0.80;;;;;;;9.52;79.48;98258.84;10458867;28;20231;-66
2022/04/08 08:56:40;;;;;;;4.40;0.97;;;;;;;9.56;78.89;98270.78;10458163;28;20235;-67
2022/04/08 09:01:44;;;;;;;2.97;0.90;;;;;;;9.60;77.23;98274.91;10457492;28;20216;-66
2022/04/08 09:06:48;;;;;;;3.40;0.93;;;;;;;9.78;76.58;98269.03;10457553;28;20216;-65
2022/04/08 09:11:52;;;;;;;2.13;0.73;;;;;;;9.97;77.67;98278.59;10457454;28;20217;-66
2022/04/08 09:17:03;;;;;;;4.30;0.83;;;;;;;10.02;73.04;98289.59;10457004;28;20259;-70
2022/04/08 09:22:06;;;;;;;2.73;0.87;;;;;;;10.29;72.77;98290.22;10456867;28;20534;-67
2022/04/08 09:27:11;;;;;;;5.17;0.87;;;;;;;10.52;71.07;98300.47;10456679;28;20203;-67
2022/04/08 09:32:15;;;;;;;2.90;0.80;;;;;;;10.49;70.88;98298.00;10456236;28;20208;-67
2022/04/08 09:37:19;;;;;;;4.83;0.90;;;;;;;10.23;70.86;98306.88;10456204;28;20421;-70
2022/04/08 09:42:22;;;;;;;2.97;1.00;;;;;;;10.41;71.39;98320.81;10474772;28;20279;-67
2022/04/08 09:47:26;;;;;;;2.47;0.80;;;;;;;10.43;70.93;98329.38;10497968;28;20646;-70
2022/04/08 09:52:31;;;;;;;2.77;0.90;;;;;;;10.68;70.36;98332.63;10456484;28;20223;-68
2022/04/08 09:57:37;;;;;;;5.07;1.10;;;;;;;10.75;69.99;98323.66;10456064;28;20613;-64
2022/04/08 10:02:45;;;;;;;2.57;0.77;;;;;;;10.84;68.44;98331.03;10455921;28;20197;-67
2022/04/08 10:07:49;;;;;;;2.57;0.90;;;;;;;11.01;68.68;98344.13;10455626;28;20210;-67
2022/04/08 10:13:15;;;;;;;3.40;1.10;;;;;;;11.82;65.97;98343.91;10454480;28;20316;-64
2022/04/08 10:18:21;;;;;;;69.20;44.73;;;;;;;13.01;62.86;98340.50;10455227;28;20212;-66
2022/04/08 10:23:36;;;;;;;3.73;1.40;;;;;;;13.58;60.74;98343.44;10455252;28;20197;-69
2022/04/08 10:28:41;;;;;;;2.67;1.10;;;;;;;12.52;60.97;98362.97;10455194;28;20197;-67
2022/04/08 10:33:50;;;;;;;1.93;0.83;;;;;;;11.72;63.95;98358.25;10455029;28;20231;-67
2022/04/08 10:38:54;;;;;;;4.60;1.27;;;;;;;11.03;73.97;98360.47;10454868;28;20276;-68
2022/04/08 10:43:57;;;;;;;3.30;1.20;;;;;;;10.01;86.74;98380.38;10486935;28;20196;-67
2022/04/08 10:49:01;;;;;;;3.13;1.10;;;;;;;10.02;83.52;98411.41;10460267;28;20547;-64
2022/04/08 10:54:06;;;;;;;2.80;1.20;;;;;;;10.69;76.39;98438.09;10456319;28;20227;-66
2022/04/08 10:59:10;;;;;;;5.03;1.93;;;;;;;10.55;75.91;98392.84;10454473;28;20193;-68
2022/04/08 11:04:19;;;;;;;3.37;0.80;;;;;;;10.43;79.67;98402.84;10455112;28;20287;-67
2022/04/08 11:09:23;;;;;;;3.47;0.93;;;;;;;10.18;81.04;98437.59;10459668;28;20647;-65
2022/04/08 11:14:28;;;;;;;4.23;1.10;;;;;;;9.65;86.45;98488.81;10461885;28;20327;-68
2022/04/08 11:19:33;;;;;;;2.83;1.00;;;;;;;8.84;99.28;98520.13;10461655;28;20189;-67
2022/04/08 11:24:40;;;;;;;1.47;0.60;;;;;;;7.83;100.00;98512.94;10461904;28;20253;-66
2022/04/08 11:29:43;;;;;;;3.90;0.80;;;;;;;8.25;100.00;98510.84;10461809;28;20212;-67
2022/04/08 11:34:48;;;;;;;1.90;0.70;;;;;;;10.01;100.00;98528.09;10461376;28;20239;-66
2022/04/08 11:39:57;;;;;;;1.83;0.77;;;;;;;10.52;91.17;98515.75;10460935;28;20211;-65
2022/04/08 11:45:02;;;;;;;2.70;0.70;;;;;;;9.74;94.22;98524.75;10501257;28;20275;-64
2022/04/08 11:50:09;;;;;;;5.00;0.97;;;;;;;10.41;90.05;98528.28;10497549;28;20199;-64
2022/04/08 11:55:12;;;;;;;2.93;1.07;;;;;;;11.07;88.46;98535.13;10460327;28;20207;-70
2022/04/08 12:00:25;;;;;;;2.47;0.83;;;;;;;11.98;76.40;98532.03;10460703;28;20203;-68
2022/04/08 12:05:31;;;;;;;2.57;0.83;;;;;;;13.20;71.36;98550.47;10463524;28;20201;-63
2022/04/08 12:10:54;;;;;;;2.63;1.00;;;;;;;12.22;72.17;98536.09;10462798;28;20204;-65
2022/04/08 12:15:59;;;;;;;3.10;1.03;;;;;;;12.82;74.33;98531.47;10462721;28;20248;-64
2022/04/08 12:21:07;;;;;;;3.87;1.10;;;;;;;13.31;71.27;98523.88;10462045;28;20264;-68
2022/04/08 12:26:11;;;;;;;2.53;1.00;;;;;;;13.94;69.87;98524.00;10462883;28;20254;-65
2022/04/08 12:31:16;;;;;;;3.20;1.37;;;;;;;13.43;69.02;98547.56;10462049;28;20224;-64
2022/04/08 12:36:21;;;;;;;4.03;1.00;;;;;;;12.27;70.17;98566.22;10461982;28;20524;-66
2022/04/08 12:41:25;;;;;;;3.00;1.20;;;;;;;12.50;68.93;98552.13;10461723;28;20207;-67
2022/04/08 12:46:28;;;;;;;2.17;0.90;;;;;;;12.61;66.82;98555.09;10461445;28;20511;-67
2022/04/08 12:51:34;;;;;;;2.60;0.90;;;;;;;11.52;69.99;98553.97;10461121;28;20213;-64
2022/04/08 12:56:38;;;;;;;2.90;1.00;;;;;;;11.38;70.36;98562.34;10461244;28;20650;-64
2022/04/08 13:01:41;;;;;;;2.27;0.90;;;;;;;15.54;60.17;98535.00;10460932;28;20196;-65
2022/04/08 13:06:46;;;;;;;3.70;1.20;;;;;;;12.98;66.00;98535.97;10461125;28;20220;-64
2022/04/08 13:11:49;;;;;;;4.03;1.17;;;;;;;12.37;64.47;98533.66;10460017;28;20233;-66
2022/04/08 13:16:53;;;;;;;3.37;1.30;;;;;;;12.11;64.58;98531.44;10460083;28;20319;-65
2022/04/08 13:21:57;;;;;;;3.63;1.23;;;;;;;15.12;58.49;98501.75;10459642;28;20706;-65
2022/04/08 13:27:01;;;;;;;36.60;18.70;;;;;;;12.77;60.30;98535.22;10459675;28;20565;-70
2022/04/08 13:32:05;;;;;;;3.43;0.93;;;;;;;11.90;62.99;98523.72;10458663;28;20746;-68
2022/04/08 13:37:10;;;;;;;11.90;7.00;;;;;;;11.39;63.61;98527.66;10459769;28;20213;-71
2022/04/08 13:42:13;;;;;;;1.27;0.50;;;;;;;11.53;62.47;98501.09;10458928;28;20620;-61
2022/04/08 13:47:16;;;;;;;4.97;1.93;;;;;;;11.36;62.52;98501.81;10459158;28;20243;-67
2022/04/08 13:52:21;;;;;;;2.87;0.77;;;;;;;11.09;63.15;98515.13;10458801;28;20229;-65
2022/04/08 13:57:29;;;;;;;4.73;1.00;;;;;;;10.71;67.58;98513.25;10458825;28;20234;-68
2022/04/08 14:02:33;;;;;;;2.77;0.90;;;;;;;10.05;75.32;98535.69;10458968;28;20295;-66
2022/04/08 14:07:38;;;;;;;5.97;1.30;;;;;;;9.14;92.94;98607.97;10458629;28;20227;-66
2022/04/08 14:12:41;;;;;;;13.03;1.63;;;;;;;7.22;100.00;98632.44;10458363;28;20231;-64
2022/04/08 14:17:44;;;;;;;2.90;0.90;;;;;;;6.99;100.00;98655.34;10458665;28;20216;-67
2022/04/08 14:22:49;;;;;;;2.67;0.80;;;;;;;6.50;100.00;98662.47;10458372;28;20713;-65
2022/04/08 14:27:52;;;;;;;2.10;0.77;;;;;;;6.32;100.00;98679.16;10458610;28;20311;-65
2022/04/08 14:32:56;;;;;;;3.67;1.40;;;;;;;6.13;100.00;98676.97;10458813;28;20663;-69
2022/04/08 14:38:01;;;;;;;2.80;0.90;;;;;;;6.54;100.00;98661.53;10458378;28;20337;-70
2022/04/08 14:43:04;;;;;;;6.23;2.83;;;;;;;7.28;100.00;98649.50;10461105;28;20322;-68
2022/04/08 14:48:08;;;;;;;5.83;1.30;;;;;;;7.83;100.00;98647.22;10466114;28;20219;-71
2022/04/08 14:53:12;;;;;;;3.03;1.30;;;;;;;8.61;100.00;98647.56;10465563;28;20304;-71
2022/04/08 14:58:16;;;;;;;3.60;1.30;;;;;;;8.73;100.00;98639.44;10466038;28;20674;-66
2022/04/08 15:03:19;;;;;;;4.50;2.53;;;;;;;8.53;100.00;98638.34;10113926;28;10000054;-69
2022/04/08 15:08:24;;;;;;;3.40;1.20;;;;;;;7.78;100.00;98628.41;10461899;28;20234;-65
2022/04/08 15:13:27;;;;;;;2.47;1.10;;;;;;;7.69;100.00;98628.66;10462160;28;20247;-70
2022/04/08 15:18:31;;;;;;;10.23;4.80;;;;;;;7.18;100.00;98645.47;10461855;28;20234;-71
2022/04/08 15:23:36;;;;;;;4.80;2.37;;;;;;;7.11;100.00;98654.22;10462203;28;20687;-66
2022/04/08 15:28:39;;;;;;;4.37;1.60;;;;;;;7.12;100.00;98651.59;10464859;28;20555;-64
2022/04/08 15:33:42;;;;;;;2.90;1.00;;;;;;;7.00;100.00;98651.91;10464825;28;20542;-67
2022/04/08 15:38:47;;;;;;;2.73;0.87;;;;;;;6.91;100.00;98652.94;10462121;28;20688;-64
2022/04/08 15:43:50;;;;;;;4.60;2.17;;;;;;;6.94;100.00;98647.72;10461016;28;20304;-64
2022/04/08 15:48:53;;;;;;;4.63;1.00;;;;;;;6.99;100.00;98645.88;10446827;28;20296;-64
2022/04/08 15:54:02;;;;;;;14.13;8.73;;;;;;;6.88;100.00;98658.19;10462922;28;20224;-66
2022/04/08 15:59:05;;;;;;;10.13;4.83;;;;;;;6.92;100.00;98658.94;10463888;28;20546;-65
2022/04/08 16:04:09;;;;;;;4.83;1.20;;;;;;;6.95;100.00;98648.56;10463557;28;20299;-70
2022/04/08 16:09:16;;;;;;;4.60;1.33;;;;;;;7.03;100.00;98650.09;10463039;28;20231;-69
2022/04/08 16:14:19;;;;;;;3.43;1.00;;;;;;;6.98;100.00;98640.75;10462937;28;20264;-70
2022/04/08 16:19:22;;;;;;;5.60;1.30;;;;;;;6.95;100.00;98646.81;10457668;28;20686;-66
2022/04/08 16:24:28;;;;;;;4.00;1.20;;;;;;;6.88;100.00;98644.44;10462197;28;20304;-70
2022/04/08 16:29:31;;;;;;;5.37;1.73;;;;;;;6.66;100.00;98667.25;10453963;28;20221;-64
2022/04/08 16:34:34;;;;;;;5.17;1.80;;;;;;;6.70;100.00;98671.47;10458278;28;20231;-66
2022/04/08 16:39:39;;;;;;;13.63;6.40;;;;;;;6.92;100.00;98649.47;10459983;28;20856;-70
2022/04/08 16:44:43;;;;;;;3.80;1.30;;;;;;;6.94;100.00;98657.19;10457071;28;20639;-69
2022/04/08 16:49:46;;;;;;;4.50;1.57;;;;;;;6.88;100.00;98672.81;10458192;28;20199;-69
2022/04/08 16:54:51;;;;;;;6.20;1.50;;;;;;;6.98;100.00;98675.16;10460505;28;20236;-67
2022/04/08 16:59:54;;;;;;;3.63;1.40;;;;;;;6.88;100.00;98677.97;10457686;28;20235;-68
2022/04/08 17:04:58;;;;;;;5.07;1.70;;;;;;;6.80;100.00;98672.97;10457854;28;20285;-71
2022/04/08 17:10:02;;;;;;;4.70;1.50;;;;;;;6.87;100.00;98668.50;10455927;28;20211;-69
2022/04/08 17:15:07;;;;;;;3.77;1.63;;;;;;;6.94;100.00;98660.63;10459573;28;20235;-66
2022/04/08 17:20:11;;;;;;;5.30;2.03;;;;;;;6.87;100.00;98660.78;10456083;28;20233;-71
2022/04/08 17:25:16;;;;;;;5.20;1.80;;;;;;;6.95;100.00;98666.63;10454723;28;20633;-67
2022/04/08 17:30:19;;;;;;;3.87;1.53;;;;;;;6.84;100.00;98661.72;10460147;28;20513;-68
2022/04/08 17:35:23;;;;;;;6.27;1.93;;;;;;;6.94;100.00;98659.75;10459791;28;20309;-72
2022/04/08 17:40:30;;;;;;;7.80;2.83;;;;;;;7.03;100.00;98650.09;10458129;28;20656;-67
2022/04/08 17:45:36;;;;;;;8.67;2.50;;;;;;;6.97;99.27;98657.13;10455796;28;20250;-67
2022/04/08 17:50:39;;;;;;;6.30;1.70;;;;;;;6.96;100.00;98661.44;10459620;28;20683;-67
2022/04/08 17:55:44;;;;;;;6.73;2.97;;;;;;;7.08;100.00;98662.88;10458442;28;20559;-67
2022/04/08 18:00:47;;;;;;;5.33;2.20;;;;;;;7.06;100.00;98666.38;10456680;28;20227;-69
2022/04/08 18:05:50;;;;;;;7.97;3.17;;;;;;;7.00;100.00;98678.53;10455948;28;20284;-64
2022/04/08 18:11:08;;;;;;;7.20;2.30;;;;;;;6.93;96.71;98669.25;10457818;28;20311;-66
2022/04/08 18:16:12;;;;;;;6.43;2.03;;;;;;;6.86;93.23;98690.88;10458140;28;20691;-65
2022/04/08 18:21:15;;;;;;;14.90;5.67;;;;;;;6.94;93.22;98688.97;10457915;28;20223;-68
2022/04/08 18:26:20;;;;;;;5.60;2.30;;;;;;;6.85;90.17;98691.75;10457022;28;20225;-68
2022/04/08 18:31:23;;;;;;;7.53;2.60;;;;;;;6.80;89.25;98713.34;10457491;28;20220;-70
2022/04/08 18:36:27;;;;;;;7.20;2.47;;;;;;;6.84;88.69;98710.69;10455574;28;20232;-65
2022/04/08 18:41:31;;;;;;;8.43;3.10;;;;;;;6.85;88.40;98696.91;10454495;28;20217;-66
2022/04/08 18:46:35;;;;;;;7.27;2.23;;;;;;;6.94;90.90;98691.56;10454262;28;20545;-68
2022/04/08 18:51:38;;;;;;;6.73;2.30;;;;;;;6.84;89.50;98713.28;10455302;28;20223;-70
2022/04/08 18:56:43;;;;;;;9.90;2.73;;;;;;;6.83;88.97;98700.41;10455222;28;20259;-69
2022/04/08 19:01:46;;;;;;;8.67;2.93;;;;;;;6.82;88.86;98690.97;10452814;28;20208;-69
2022/04/08 19:06:50;;;;;;;11.33;5.10;;;;;;;6.87;89.46;98669.38;10454608;28;20303;-67
2022/04/08 19:11:55;;;;;;;16.00;7.90;;;;;;;6.91;89.25;98655.53;10114253;28;9999651;-64
2022/04/08 19:16:58;;;;;;;7.23;2.60;;;;;;;6.75;89.27;98655.91;10493899;28;20232;-67
2022/04/08 19:22:02;;;;;;;6.73;2.30;;;;;;;6.78;88.86;98661.00;10452628;28;20304;-63
2022/04/08 19:27:07;;;;;;;8.10;3.73;;;;;;;6.81;88.59;98653.19;10412507;28;20232;-66
2022/04/08 19:32:10;;;;;;;6.83;2.63;;;;;;;6.78;89.11;98650.69;10419553;28;20225;-68
2022/04/08 19:37:14;;;;;;;6.37;2.93;;;;;;;6.73;86.59;98645.63;10420221;28;20222;-68
2022/04/08 19:42:18;;;;;;;10.67;3.43;;;;;;;6.71;88.65;98634.50;10420223;28;20241;-69
2022/04/08 19:47:23;;;;;;;7.73;2.93;;;;;;;6.83;88.65;98638.53;10453824;28;20220;-67
2022/04/08 19:52:27;;;;;;;7.97;3.00;;;;;;;6.87;87.64;98635.00;10454180;28;20252;-67
2022/04/08 19:57:31;;;;;;;8.53;3.07;;;;;;;6.91;86.90;98632.31;10461203;28;20547;-69
2022/04/08 20:02:35;;;;;;;13.93;5.70;;;;;;;6.92;86.13;98630.56;10461947;28;20212;-69
2022/04/08 20:07:41;;;;;;;11.77;4.50;;;;;;;6.93;86.50;98632.28;10461692;28;20313;-66
2022/04/08 20:12:46;;;;;;;8.37;3.20;;;;;;;6.93;86.04;98625.41;10461848;28;20216;-66
2022/04/08 20:17:50;;;;;;;12.03;3.70;;;;;;;6.97;85.83;98621.03;10462818;28;20311;-68
2022/04/08 20:22:53;;;;;;;12.37;3.93;;;;;;;6.95;86.94;98618.47;10462663;28;20698;-66
2022/04/08 20:27:58;;;;;;;11.53;3.40;;;;;;;6.91;87.24;98616.84;10462187;28;20224;-68
2022/04/08 20:33:01;;;;;;;11.43;3.87;;;;;;;6.92;87.30;98622.84;10461275;28;20682;-67
2022/04/08 20:38:05;;;;;;;11.70;4.00;;;;;;;6.91;87.66;98616.84;10462399;28;20311;-71
2022/04/08 20:43:10;;;;;;;11.73;4.43;;;;;;;6.90;88.46;98611.75;10461045;28;20209;-70
2022/04/08 20:48:13;;;;;;;9.60;4.20;;;;;;;6.91;89.47;98598.81;10461080;28;20220;-63
2022/04/08 20:53:18;;;;;;;10.07;4.27;;;;;;;6.88;90.00;98600.59;10461266;28;20189;-65
2022/04/08 20:58:23;;;;;;;11.83;4.40;;;;;;;6.86;90.82;98610.97;10458428;28;20231;-66
2022/04/08 21:03:26;;;;;;;11.77;4.47;;;;;;;6.81;93.68;98605.06;10458191;28;20189;-68
2022/04/08 21:08:30;;;;;;;13.17;4.93;;;;;;;6.56;97.00;98605.63;10457847;28;20189;-66
2022/04/08 21:13:34;;;;;;;10.10;4.60;;;;;;;6.74;94.16;98607.81;10457112;28;20229;-70
2022/04/08 21:18:40;;;;;;;16.90;6.13;;;;;;;6.78;92.62;98599.97;10457483;28;20300;-67
2022/04/08 21:23:44;;;;;;;10.03;5.13;;;;;;;6.77;93.19;98598.28;10107933;28;10000343;-69
2022/04/08 21:28:48;;;;;;;14.13;7.07;;;;;;;6.79;91.87;98600.81;10456278;28;20197;-68
2022/04/08 21:33:52;;;;;;;12.10;5.20;;;;;;;6.77;92.46;98598.28;10457120;28;20276;-69
2022/04/08 21:38:57;;;;;;;10.90;5.37;;;;;;;6.75;92.13;98591.44;10457060;28;20211;-69
2022/04/08 21:44:01;;;;;;;16.33;5.80;;;;;;;6.77;91.54;98587.97;10455329;28;20888;-70
2022/04/08 21:49:06;;;;;;;12.03;5.13;;;;;;;6.75;91.71;98583.72;10456343;28;20506;-71
2022/04/08 21:54:10;;;;;;;11.40;5.07;;;;;;;6.71;91.15;98577.78;10456393;28;20189;-67
2022/04/08 21:59:14;;;;;;;12.07;5.93;;;;;;;6.74;91.65;98585.47;10455307;28;20211;-67
2022/04/08 22:04:18;;;;;;;12.80;5.87;;;;;;;6.78;91.83;98588.81;10457955;28;20200;-70
2022/04/08 22:09:21;;;;;;;14.97;6.20;;;;;;;6.77;91.61;98585.38;10459252;28;20207;-66
2022/04/08 22:14:26;;;;;;;13.97;5.83;;;;;;;6.80;91.15;98587.88;10458154;28;20627;-68
2022/04/08 22:19:29;;;;;;;14.90;5.93;;;;;;;6.78;91.44;98579.34;10457181;28;20219;-69
2022/04/08 22:24:36;;;;;;;14.23;6.30;;;;;;;6.80;91.60;98567.25;10458412;28;20215;-65
2022/04/08 22:29:40;;;;;;;15.47;6.80;;;;;;;6.79;92.50;98567.28;10458461;28;20199;-65
2022/04/08 22:34:45;;;;;;;13.33;7.00;;;;;;;6.81;93.44;98561.25;10458270;28;20664;-68
2022/04/08 22:39:48;;;;;;;15.20;6.67;;;;;;;6.73;92.74;98567.47;10459074;28;20191;-70
2022/04/08 22:44:53;;;;;;;18.63;7.57;;;;;;;6.67;97.94;98563.28;10458666;28;20217;-68
2022/04/08 22:49:56;;;;;;;13.50;6.20;;;;;;;6.69;95.85;98551.22;10458516;28;20307;-66
2022/04/08 22:55:00;;;;;;;12.93;6.60;;;;;;;6.71;95.42;98544.28;10458081;28;20302;-68
2022/04/08 23:00:09;;;;;;;13.93;6.33;;;;;;;6.75;94.82;98547.63;10457982;28;20227;-73
2022/04/08 23:05:13;;;;;;;14.50;6.70;;;;;;;6.75;93.94;98547.63;10462745;28;20196;-67
2022/04/08 23:10:17;;;;;;;12.87;6.13;;;;;;;6.78;93.94;98535.50;10463841;28;20219;-66
2022/04/08 23:15:22;;;;;;;14.27;6.03;;;;;;;6.81;94.41;98532.88;10465629;28;20233;-67
2022/04/08 23:20:25;;;;;;;13.43;5.97;;;;;;;6.84;94.02;98519.03;10463843;28;20237;-69
2022/04/08 23:25:29;;;;;;;12.27;5.27;;;;;;;6.86;94.50;98528.44;10465209;28;20226;-67
2022/04/08 23:30:34;;;;;;;9.30;4.37;;;;;;;6.86;95.40;98532.75;10463488;28;20660;-71
2022/04/08 23:35:37;;;;;;;9.47;4.10;;;;;;;6.92;96.06;98524.84;10464843;28;20228;-69
2022/04/08 23:40:40;;;;;;;7.90;3.43;;;;;;;6.96;96.20;98511.00;10464907;28;20212;-72